createdAt,value
2022-08-16T00:00:47.993Z,100.00
2022-08-16T00:03:21.688Z,100.00
2022-08-16T00:05:57.609Z,100.00
2022-08-16T00:08:35.698Z,100.00
2022-08-16T00:11:07.509Z,100.00
2022-08-16T00:13:41.877Z,100.00
2022-08-16T00:17:00.988Z,100.00
2022-08-16T00:19:01.858Z,100.00
2022-08-16T00:21:31.692Z,100.00
2022-08-16T00:24:04.665Z,100.00
2022-08-16T00:26:37.472Z,100.00
2022-08-16T00:29:17.443Z,100.00
2022-08-16T00:31:59.760Z,100.00
2022-08-16T00:34:43.686Z,100.00
2022-08-16T00:37:16.973Z,100.00
2022-08-16T00:39:57.261Z,100.00
2022-08-16T00:42:32.250Z,100.00
2022-08-16T00:45:14.890Z,100.00
2022-08-16T00:47:49.318Z,100.00
2022-08-16T00:50:36.601Z,100.00
2022-08-16T00:53:06.472Z,100.00
2022-08-16T00:55:41.369Z,100.00
2022-08-16T00:58:13.080Z,100.00
2022-08-16T01:00:54.148Z,100.00
2022-08-16T01:03:30.250Z,100.00
2022-08-16T01:06:40.630Z,100.00
2022-08-16T01:09:00.056Z,100.00
2022-08-16T01:11:29.904Z,100.00
2022-08-16T01:14:08.015Z,100.00
2022-08-16T01:16:39.444Z,100.00
2022-08-16T01:19:19.680Z,100.00
2022-08-16T01:21:56.180Z,100.00
2022-08-16T01:24:55.480Z,100.00
2022-08-16T01:27:34.423Z,100.00
2022-08-16T01:30:19.561Z,100.00
2022-08-16T01:33:14.748Z,100.00
2022-08-16T01:35:57.517Z,100.00
2022-08-16T01:38:32.931Z,100.00
2022-08-16T01:41:09.612Z,100.00
2022-08-16T01:43:42.717Z,100.00
2022-08-16T01:46:37.424Z,100.00
2022-08-16T01:49:15.859Z,100.00
2022-08-16T01:51:55.157Z,100.00
2022-08-16T01:54:32.145Z,100.00
2022-08-16T01:57:11.478Z,100.00
2022-08-16T01:59:43.105Z,100.00
2022-08-16T02:02:26.781Z,100.00
2022-08-16T02:05:00.163Z,100.00
2022-08-16T02:07:30.586Z,100.00
2022-08-16T02:10:02.184Z,100.00
2022-08-16T02:12:51.450Z,100.00
2022-08-16T02:15:29.598Z,100.00
2022-08-16T02:18:01.806Z,100.00
2022-08-16T02:20:35.260Z,100.00
2022-08-16T02:23:06.015Z,100.00
2022-08-16T02:25:52.614Z,100.00
2022-08-16T02:28:27.435Z,100.00
2022-08-16T02:31:00.662Z,100.00
2022-08-16T02:33:44.460Z,100.00
2022-08-16T02:36:47.795Z,100.00
2022-08-16T02:39:22.941Z,100.00
2022-08-16T02:41:54.364Z,100.00
2022-08-16T02:44:28.587Z,100.00
2022-08-16T02:46:59.096Z,100.00
2022-08-16T02:49:58.380Z,100.00
2022-08-16T02:52:24.795Z,100.00
2022-08-16T02:55:00.944Z,100.00
2022-08-16T02:57:31.093Z,100.00
2022-08-16T03:00:34.046Z,100.00
2022-08-16T03:02:57.092Z,100.00
2022-08-16T03:05:30.832Z,100.00
2022-08-16T03:08:02.775Z,100.00
2022-08-16T03:10:39.201Z,100.00
2022-08-16T03:13:12.497Z,100.00
2022-08-16T03:15:45.464Z,100.00
2022-08-16T03:18:34.452Z,100.00
2022-08-16T03:21:10.135Z,100.00
2022-08-16T03:23:44.104Z,100.00
2022-08-16T03:26:14.728Z,100.00
2022-08-16T03:28:48.264Z,100.00
2022-08-16T03:31:20.281Z,100.00
2022-08-16T03:33:52.135Z,100.00
2022-08-16T03:36:31.235Z,100.00
2022-08-16T03:39:06.628Z,100.00
2022-08-16T03:41:50.101Z,100.00
2022-08-16T03:44:44.479Z,100.00
2022-08-16T03:47:19.281Z,100.00
2022-08-16T03:49:51.499Z,100.00
2022-08-16T03:52:23.307Z,100.00
2022-08-16T03:54:57.923Z,100.00
2022-08-16T03:57:31.958Z,100.00
2022-08-16T04:00:20.751Z,100.00
2022-08-16T04:03:09.208Z,100.00
2022-08-16T04:05:46.721Z,100.00
2022-08-16T04:08:23.356Z,100.00
2022-08-16T04:10:58.055Z,100.00
2022-08-16T04:14:00.265Z,100.00
2022-08-16T04:16:27.580Z,100.00
2022-08-16T04:19:12.140Z,100.00
2022-08-16T04:21:46.172Z,100.00
2022-08-16T04:24:19.713Z,100.00
2022-08-16T04:26:49.407Z,100.00
2022-08-16T04:29:23.623Z,100.00
2022-08-16T04:31:57.989Z,100.00
2022-08-16T04:34:37.229Z,100.00
2022-08-16T04:37:08.406Z,100.00
2022-08-16T04:39:46.993Z,100.00
2022-08-16T04:42:29.645Z,100.00
2022-08-16T04:45:02.024Z,100.00
2022-08-16T04:47:36.241Z,100.00
2022-08-16T04:50:16.256Z,100.00
2022-08-16T04:53:05.757Z,100.00
2022-08-16T04:55:38.871Z,100.00
2022-08-16T04:58:44.229Z,100.00
2022-08-16T05:01:01.241Z,100.00
2022-08-16T05:03:33.688Z,100.00
2022-08-16T05:06:07.089Z,100.00
2022-08-16T05:08:39.473Z,100.00
2022-08-16T05:11:25.142Z,100.00
2022-08-16T05:14:06.959Z,100.00
2022-08-16T05:16:39.563Z,100.00
2022-08-16T05:19:16.501Z,100.00
2022-08-16T05:22:08.214Z,100.00
2022-08-16T05:24:49.495Z,100.00
2022-08-16T05:27:26.341Z,100.00
2022-08-16T05:30:01.996Z,100.00
2022-08-16T05:32:47.794Z,100.00
2022-08-16T05:35:19.267Z,100.00
2022-08-16T05:38:32.492Z,100.00
2022-08-16T05:41:09.315Z,100.00
2022-08-16T05:43:46.798Z,100.00
2022-08-16T05:46:30.057Z,100.00
2022-08-16T05:49:22.270Z,100.00
2022-08-16T05:51:57.370Z,100.00
2022-08-16T05:54:29.924Z,100.00
2022-08-16T05:57:02.919Z,100.00
2022-08-16T05:59:33.855Z,100.00
2022-08-16T06:02:03.331Z,100.00
2022-08-16T06:04:37.884Z,100.00
2022-08-16T06:07:25.034Z,100.00
2022-08-16T06:10:31.976Z,100.00
2022-08-16T06:13:05.829Z,100.00
2022-08-16T06:15:36.605Z,100.00
2022-08-16T06:18:07.098Z,100.00
2022-08-16T06:20:36.898Z,100.00
2022-08-16T06:23:26.342Z,100.00
2022-08-16T06:26:03.005Z,100.00
2022-08-16T06:28:39.163Z,100.00
2022-08-16T06:31:15.652Z,100.00
2022-08-16T06:33:49.269Z,100.00
2022-08-16T06:36:24.127Z,100.00
2022-08-16T06:39:16.288Z,96.38
2022-08-16T06:42:08.716Z,93.17
2022-08-16T06:45:00.621Z,87.73
2022-08-16T06:47:53.633Z,86.60
2022-08-16T06:50:29.450Z,86.06
2022-08-16T06:53:08.569Z,84.59
2022-08-16T06:56:13.949Z,81.31
2022-08-16T06:59:03.084Z,80.04
2022-08-16T07:01:53.696Z,81.51
2022-08-16T07:04:32.445Z,77.98
2022-08-16T07:07:10.152Z,78.15
2022-08-16T07:09:41.660Z,75.88
2022-08-16T07:12:11.780Z,75.77
2022-08-16T07:14:49.147Z,75.29
2022-08-16T07:17:21.735Z,76.87
2022-08-16T07:20:30.275Z,77.16
2022-08-16T07:22:59.162Z,76.35
2022-08-16T07:25:52.189Z,77.83
2022-08-16T07:28:24.249Z,75.87
2022-08-16T07:31:00.059Z,74.70
2022-08-16T07:33:52.821Z,74.48
2022-08-16T07:36:30.796Z,73.09
2022-08-16T07:39:01.179Z,72.58
2022-08-16T07:41:36.973Z,73.04
2022-08-16T07:44:16.809Z,72.01
2022-08-16T07:46:55.462Z,68.56
2022-08-16T07:49:27.109Z,69.56
2022-08-16T07:52:03.127Z,67.15
2022-08-16T07:54:49.019Z,69.34
2022-08-16T07:57:24.139Z,67.37
2022-08-16T07:59:57.409Z,67.72
2022-08-16T08:02:28.765Z,70.23
2022-08-16T08:05:00.482Z,66.83
2022-08-16T08:07:33.008Z,64.99
2022-08-16T08:10:11.025Z,66.55
2022-08-16T08:12:41.971Z,66.84
2022-08-16T08:15:14.824Z,61.65
2022-08-16T08:17:56.664Z,57.71
2022-08-16T08:20:45.865Z,55.94
2022-08-16T08:23:30.200Z,56.36
2022-08-16T08:26:00.436Z,59.13
2022-08-16T08:28:32.377Z,55.43
2022-08-16T08:31:07.226Z,54.31
2022-08-16T08:33:46.735Z,58.10
2022-08-16T08:36:33.630Z,58.89
2022-08-16T08:39:15.420Z,58.53
2022-08-16T08:41:51.303Z,58.17
2022-08-16T08:44:29.043Z,57.80
2022-08-16T08:47:12.093Z,57.97
2022-08-16T08:49:46.323Z,57.99
2022-08-16T08:52:34.190Z,57.08
2022-08-16T08:55:11.477Z,54.55
2022-08-16T08:57:47.727Z,55.67
2022-08-16T09:00:30.270Z,56.47
2022-08-16T09:03:04.243Z,58.53
2022-08-16T09:05:38.271Z,52.76
2022-08-16T09:08:11.737Z,51.15
2022-08-16T09:10:58.858Z,52.65
2022-08-16T09:13:33.451Z,51.16
2022-08-16T09:16:04.120Z,52.78
2022-08-16T09:18:36.615Z,51.36
2022-08-16T09:21:09.909Z,51.83
2022-08-16T09:23:41.008Z,50.20
2022-08-16T09:26:46.334Z,49.26
2022-08-16T09:29:15.527Z,50.98
2022-08-16T09:31:53.520Z,49.28
2022-08-16T09:34:23.264Z,48.59
2022-08-16T09:36:57.981Z,47.68
2022-08-16T09:39:41.504Z,49.33
2022-08-16T09:42:14.417Z,50.00
2022-08-16T09:45:11.854Z,48.17
2022-08-16T09:47:57.170Z,46.74
2022-08-16T09:50:25.727Z,48.38
2022-08-16T09:52:56.448Z,50.05
2022-08-16T09:55:28.072Z,49.84
2022-08-16T09:58:00.955Z,50.53
2022-08-16T10:00:44.226Z,52.79
2022-08-16T10:03:14.759Z,52.57
2022-08-16T10:05:44.676Z,53.69
2022-08-16T10:08:26.502Z,52.09
2022-08-16T10:11:15.229Z,53.18
2022-08-16T10:13:53.311Z,51.90
2022-08-16T10:16:24.755Z,52.79
2022-08-16T10:19:01.512Z,54.60
2022-08-16T10:21:34.101Z,51.45
2022-08-16T10:24:05.822Z,49.30
2022-08-16T10:27:18.138Z,50.27
2022-08-16T10:29:24.979Z,50.69
2022-08-16T10:32:14.371Z,49.78
2022-08-16T10:34:51.466Z,51.05
2022-08-16T10:37:32.630Z,52.31
2022-08-16T10:40:28.703Z,51.69
2022-08-16T10:43:01.107Z,49.45
2022-08-16T10:45:37.061Z,50.51
2022-08-16T10:48:23.917Z,50.09
2022-08-16T10:50:59.307Z,47.27
2022-08-16T10:53:32.835Z,46.85
2022-08-16T10:56:52.240Z,47.40
2022-08-16T10:59:32.748Z,47.32
2022-08-16T11:07:43.289Z,45.13
2022-08-16T11:11:04.984Z,40.19
2022-08-16T11:16:01.202Z,44.25
2022-08-16T11:18:54.991Z,44.92
2022-08-16T11:21:29.341Z,45.90
2022-08-16T11:23:59.883Z,46.93
2022-08-16T11:26:29.865Z,43.71
2022-08-16T11:29:16.530Z,40.26
2022-08-16T11:31:54.024Z,40.13
2022-08-16T11:34:31.827Z,37.99
2022-08-16T11:37:27.290Z,38.84
2022-08-16T11:39:59.950Z,38.76
2022-08-16T11:42:33.217Z,41.73
2022-08-16T11:45:09.514Z,44.39
2022-08-16T11:47:38.906Z,45.44
2022-08-16T11:50:10.275Z,47.33
2022-08-16T11:52:46.736Z,48.69
2022-08-16T11:55:16.436Z,50.79
2022-08-16T11:57:45.799Z,51.82
2022-08-16T12:00:42.669Z,52.31
2022-08-16T12:03:09.435Z,51.88
2022-08-16T12:05:44.085Z,51.88
2022-08-16T12:08:15.778Z,53.19
2022-08-16T12:10:48.885Z,52.71
2022-08-16T12:13:18.624Z,53.56
2022-08-16T12:15:50.813Z,54.67
2022-08-16T12:18:22.236Z,59.49
2022-08-16T12:20:55.151Z,71.05
2022-08-16T12:23:25.323Z,74.26
2022-08-16T12:25:54.601Z,74.83
2022-08-16T12:28:37.054Z,79.74
2022-08-16T12:31:14.869Z,81.06
2022-08-16T12:33:45.967Z,83.52
2022-08-16T12:36:17.724Z,83.47
2022-08-16T12:38:48.399Z,86.41
2022-08-16T12:41:24.526Z,89.58
2022-08-16T12:43:57.231Z,92.68
2022-08-16T12:46:32.272Z,95.50
2022-08-16T12:49:01.589Z,96.46
2022-08-16T12:51:58.293Z,96.45
2022-08-16T12:54:24.561Z,93.36
2022-08-16T12:56:53.833Z,88.61
2022-08-16T12:59:24.935Z,90.01
2022-08-16T13:02:01.920Z,90.76
2022-08-16T13:04:34.229Z,87.64
2022-08-16T13:07:06.004Z,85.45
2022-08-16T13:09:47.868Z,85.07
2022-08-16T13:12:20.107Z,83.09
2022-08-16T13:14:52.435Z,83.43
2022-08-16T13:17:29.679Z,84.39
2022-08-16T13:20:07.775Z,84.94
2022-08-16T13:25:17.401Z,81.94
2022-08-16T13:28:03.054Z,82.26
2022-08-16T13:30:41.885Z,79.83
2022-08-16T13:33:18.290Z,82.48
2022-08-16T13:35:58.553Z,78.20
2022-08-16T13:38:37.769Z,76.84
2022-08-16T13:41:09.286Z,72.27
2022-08-16T13:43:43.705Z,76.19
2022-08-16T13:46:26.299Z,72.40
2022-08-16T13:48:57.528Z,74.35
2022-08-16T13:51:29.385Z,78.11
2022-08-16T13:54:04.629Z,80.12
2022-08-16T13:56:37.842Z,82.68
2022-08-16T13:59:20.903Z,77.75
2022-08-16T14:01:55.807Z,80.48
2022-08-16T14:04:31.406Z,68.02
2022-08-16T14:07:02.711Z,67.56
2022-08-16T14:09:36.385Z,68.64
2022-08-16T14:12:18.075Z,68.23
2022-08-16T14:14:48.519Z,66.11
2022-08-16T14:17:24.495Z,70.87
2022-08-16T14:19:59.960Z,69.16
2022-08-16T14:22:35.651Z,72.32
2022-08-16T14:25:12.544Z,73.00
2022-08-16T14:27:46.038Z,70.53
2022-08-16T14:30:20.692Z,67.94
2022-08-16T14:32:51.384Z,63.32
2022-08-16T14:35:36.641Z,64.85
2022-08-16T14:38:17.994Z,65.02
2022-08-16T14:40:53.291Z,64.04
2022-08-16T14:43:25.590Z,60.59
2022-08-16T14:45:59.774Z,59.08
2022-08-16T14:48:29.116Z,57.73
2022-08-16T14:50:59.719Z,40.13
2022-08-16T14:53:31.319Z,29.83
2022-08-16T14:56:02.075Z,25.29
2022-08-16T14:58:36.628Z,21.30
2022-08-16T15:01:10.149Z,20.11
2022-08-16T15:03:44.614Z,24.22
2022-08-16T15:06:16.415Z,28.57
2022-08-16T15:08:46.064Z,28.06
2022-08-16T15:11:16.099Z,28.73
2022-08-16T15:13:47.444Z,32.16
2022-08-16T15:16:16.909Z,34.52
2022-08-16T15:18:47.755Z,38.38
2022-08-16T15:21:19.311Z,40.00
2022-08-16T15:23:50.756Z,40.09
2022-08-16T15:26:34.550Z,37.25
2022-08-16T15:29:12.104Z,28.43
2022-08-16T15:31:44.418Z,24.26
2022-08-16T15:34:22.143Z,24.14
2022-08-16T15:36:57.060Z,22.54
2022-08-16T15:39:37.219Z,20.43
2022-08-16T15:42:11.019Z,20.69
2022-08-16T15:44:51.862Z,19.39
2022-08-16T15:47:26.330Z,20.30
2022-08-16T15:49:58.000Z,19.02
2022-08-16T15:52:32.177Z,18.33
2022-08-16T15:55:23.598Z,18.32
2022-08-16T15:57:53.699Z,18.34
2022-08-16T16:00:26.792Z,17.68
2022-08-16T16:03:09.780Z,17.59
2022-08-16T16:05:43.120Z,19.00
2022-08-16T16:08:24.039Z,18.08
2022-08-16T16:10:56.705Z,17.83
2022-08-16T16:13:26.067Z,16.82
2022-08-16T16:15:58.480Z,16.94
2022-08-16T16:18:30.114Z,17.08
2022-08-16T16:21:03.133Z,17.57
2022-08-16T16:23:44.487Z,17.38
2022-08-16T16:26:23.788Z,16.69
2022-08-16T16:29:08.623Z,14.75
2022-08-16T16:31:59.166Z,15.84
2022-08-16T16:34:32.203Z,16.05
2022-08-16T16:37:02.634Z,16.17
2022-08-16T16:39:33.588Z,16.70
2022-08-16T16:42:04.285Z,16.90
2022-08-16T16:44:36.291Z,19.27
2022-08-16T16:47:07.481Z,19.38
2022-08-16T16:49:41.756Z,19.08
2022-08-16T16:52:13.760Z,20.44
2022-08-16T16:55:06.406Z,20.17
2022-08-16T16:57:53.205Z,21.47
2022-08-16T17:00:26.054Z,22.76
2022-08-16T17:02:59.888Z,22.28
2022-08-16T17:05:32.523Z,21.53
2022-08-16T17:08:02.886Z,24.23
2022-08-16T17:10:46.679Z,24.56
2022-08-16T17:13:19.065Z,25.22
2022-08-16T17:15:52.391Z,25.19
2022-08-16T17:21:13.149Z,29.15
2022-08-16T17:23:58.838Z,28.52
2022-08-16T17:26:33.249Z,27.72
2022-08-16T17:29:11.394Z,31.21
2022-08-16T17:31:43.467Z,32.91
2022-08-16T17:34:28.737Z,32.86
2022-08-16T17:37:00.744Z,34.28
2022-08-16T17:39:26.514Z,28.42
2022-08-16T17:39:58.081Z,37.01
2022-08-16T17:42:28.000Z,38.53
2022-08-16T17:44:57.294Z,42.35
2022-08-16T17:47:26.604Z,45.64
2022-08-16T17:49:56.905Z,51.17
2022-08-16T17:52:28.763Z,55.35
2022-08-16T17:54:59.114Z,59.93
2022-08-16T17:57:29.926Z,60.57
2022-08-16T17:59:59.105Z,60.72
2022-08-16T18:02:43.943Z,58.84
2022-08-16T18:05:16.260Z,60.83
2022-08-16T18:07:46.354Z,65.11
2022-08-16T18:10:32.831Z,70.93
2022-08-16T18:13:05.446Z,72.98
2022-08-16T18:15:38.006Z,79.21
2022-08-16T18:18:08.456Z,83.68
2022-08-16T18:20:56.244Z,82.25
2022-08-16T18:23:28.084Z,85.50
2022-08-16T18:26:01.104Z,86.84
2022-08-16T18:28:34.870Z,89.09
2022-08-16T18:31:09.766Z,89.82
2022-08-16T18:33:43.113Z,90.37
2022-08-16T18:36:21.078Z,90.27
2022-08-16T18:40:23.996Z,90.69
2022-08-16T18:44:23.911Z,86.31
2022-08-16T18:46:14.912Z,86.63
2022-08-16T18:48:44.150Z,87.90
2022-08-16T18:51:20.325Z,90.81
2022-08-16T18:53:53.793Z,92.89
2022-08-16T18:56:23.073Z,94.65
2022-08-16T18:59:12.317Z,96.70
2022-08-16T19:01:44.481Z,95.76
2022-08-16T19:04:47.758Z,96.78
2022-08-16T19:07:15.114Z,97.27
2022-08-16T19:09:44.472Z,97.89
2022-08-16T19:12:16.074Z,97.90
2022-08-16T19:14:46.354Z,97.76
2022-08-16T19:17:18.375Z,99.04
2022-08-16T19:19:49.225Z,99.63
2022-08-16T19:22:51.989Z,99.33
2022-08-16T19:25:18.596Z,99.43
2022-08-16T19:27:48.432Z,99.72
2022-08-16T19:30:19.879Z,100.00
2022-08-16T19:32:51.571Z,99.71
2022-08-16T19:35:23.367Z,100.00
2022-08-16T19:37:53.907Z,100.00
2022-08-16T19:40:38.238Z,100.00
2022-08-16T19:43:10.200Z,100.00
2022-08-16T19:45:45.840Z,100.00
2022-08-16T19:48:17.374Z,100.00
2022-08-16T19:50:46.657Z,100.00
2022-08-16T19:53:19.635Z,100.00
2022-08-16T19:55:49.884Z,100.00
2022-08-16T19:58:21.798Z,100.00
2022-08-16T20:00:52.253Z,100.00
2022-08-16T20:03:27.483Z,100.00
2022-08-16T20:05:59.841Z,100.00
2022-08-16T20:08:29.506Z,100.00
2022-08-16T20:10:59.412Z,100.00
2022-08-16T20:13:29.337Z,100.00
2022-08-16T20:15:58.666Z,100.00
2022-08-16T20:18:30.671Z,100.00
2022-08-16T20:21:01.174Z,100.00
2022-08-16T20:23:30.602Z,100.00
2022-08-16T20:26:00.114Z,100.00
2022-08-16T20:28:51.670Z,100.00
2022-08-16T20:31:19.708Z,100.00
2022-08-16T20:33:52.004Z,100.00
2022-08-16T20:36:22.033Z,100.00
2022-08-16T20:38:52.696Z,100.00
2022-08-16T20:41:22.537Z,100.00
2022-08-16T20:43:51.805Z,100.00
2022-08-16T20:46:25.370Z,100.00
2022-08-16T20:48:56.165Z,100.00
2022-08-16T20:51:26.433Z,100.00
2022-08-16T20:53:56.065Z,100.00
2022-08-16T20:56:27.981Z,100.00
2022-08-16T20:58:57.464Z,100.00
2022-08-16T21:01:27.271Z,100.00
2022-08-16T21:04:16.748Z,100.00
2022-08-16T21:06:54.385Z,100.00
2022-08-16T21:09:26.035Z,100.00
2022-08-16T21:11:57.842Z,100.00
2022-08-16T21:14:27.087Z,100.00
2022-08-16T21:16:57.241Z,100.00
2022-08-16T21:19:28.269Z,100.00
2022-08-16T21:21:58.267Z,100.00
2022-08-16T21:24:27.502Z,100.00
2022-08-16T21:26:56.824Z,100.00
2022-08-16T21:29:31.661Z,100.00
2022-08-16T21:32:16.245Z,100.00
2022-08-16T21:34:47.143Z,100.00
2022-08-16T21:37:16.424Z,100.00
2022-08-16T21:39:46.080Z,100.00
2022-08-16T21:42:18.730Z,100.00
2022-08-16T21:44:47.933Z,100.00
2022-08-16T21:47:17.185Z,100.00
2022-08-16T21:49:47.756Z,100.00
2022-08-16T21:52:26.536Z,100.00
2022-08-16T21:54:57.667Z,100.00
2022-08-16T21:57:27.302Z,100.00
2022-08-16T22:00:12.798Z,100.00
2022-08-16T22:02:42.579Z,100.00
2022-08-16T22:05:13.964Z,100.00
2022-08-16T22:07:43.350Z,100.00
2022-08-16T22:11:07.898Z,100.00
2022-08-16T22:13:03.061Z,100.00
2022-08-16T22:15:32.579Z,100.00
2022-08-16T22:18:01.878Z,100.00
2022-08-16T22:20:32.672Z,100.00
2022-08-16T22:23:10.685Z,100.00
2022-08-16T22:25:43.204Z,100.00
2022-08-16T22:28:13.893Z,100.00
2022-08-16T22:30:44.088Z,100.00
2022-08-16T22:33:16.248Z,100.00
2022-08-16T22:35:50.292Z,100.00
2022-08-16T22:38:55.528Z,100.00
2022-08-16T22:41:09.402Z,100.00
2022-08-16T22:43:39.699Z,100.00
2022-08-16T22:46:09.292Z,100.00
2022-08-16T22:48:39.240Z,100.00
2022-08-16T22:51:11.971Z,100.00
2022-08-16T22:53:41.107Z,100.00
2022-08-16T22:56:10.459Z,100.00
2022-08-16T22:58:39.966Z,100.00
2022-08-16T23:01:12.371Z,100.00
2022-08-16T23:03:42.341Z,100.00
2022-08-16T23:06:14.029Z,100.00
2022-08-16T23:08:44.117Z,100.00
2022-08-16T23:11:22.696Z,100.00
2022-08-16T23:13:54.582Z,100.00
2022-08-16T23:16:33.022Z,100.00
2022-08-16T23:19:05.809Z,100.00
2022-08-16T23:21:38.936Z,100.00
2022-08-16T23:24:09.550Z,100.00
2022-08-16T23:26:45.663Z,100.00
2022-08-16T23:29:23.517Z,100.00
2022-08-16T23:31:58.778Z,100.00
2022-08-16T23:34:29.501Z,100.00
2022-08-16T23:37:00.319Z,100.00
2022-08-16T23:39:30.814Z,100.00
2022-08-16T23:42:00.782Z,100.00
2022-08-16T23:44:57.362Z,100.00
2022-08-16T23:47:19.039Z,100.00
2022-08-16T23:49:59.885Z,100.00
2022-08-16T23:52:54.638Z,100.00
2022-08-16T23:55:22.412Z,100.00
2022-08-16T23:57:52.360Z,100.00
